Time;durP1;ratioP1;P1;durP2;ratioP2;P2;SDS_P1;SDS_P2;PMS_P1;PMS_P2;Temp;Humidity;BMP_temperature;BMP_pressure;BME280_temperature;BME280_humidity;BME280_pressure;Samples;Min_cycle;Max_cycle;Signal;HPM_P1;HPM_P2
2021/09/23 00:00:04;;;;;;;;;;;15.30;99.90;;;;;;1823036;78;20440;-72
2021/09/23 00:02:36;;;;;;;;;;;15.30;99.90;;;;;;1818408;78;20136;-71
2021/09/23 00:04:53;;;;;;;;;;;15.20;99.90;;;;;;1823697;78;20211;-71
2021/09/23 00:07:20;;;;;;;;;;;15.20;99.90;;;;;;1824454;78;20274;-71
2021/09/23 00:09:47;;;;;;;;;;;15.10;99.90;;;;;;1823495;78;20160;-71
2021/09/23 00:12:14;;;;;;;;;;;15.10;99.90;;;;;;1826770;78;20465;-72
2021/09/23 00:14:41;;;;;;;;;;;15.20;99.90;;;;;;1823977;76;20158;-71
2021/09/23 00:17:08;;;;;;;;;;;15.10;99.90;;;;;;1824259;78;20238;-72
2021/09/23 00:19:35;;;;;;;;;;;15.00;99.90;;;;;;1817308;78;20207;-72
2021/09/23 00:22:02;;;;;;;;;;;15.00;99.90;;;;;;1815482;78;20183;-72
2021/09/23 00:24:28;;;;;;;;;;;15.00;99.90;;;;;;1819203;78;20190;-71
2021/09/23 00:26:55;;;;;;;;;;;15.00;99.90;;;;;;1821364;78;20242;-71
2021/09/23 00:29:22;;;;;;;;;;;15.00;99.90;;;;;;1823979;78;20202;-71
2021/09/23 00:31:49;;;;;;;;;;;15.00;99.90;;;;;;1820575;78;20228;-71
2021/09/23 00:34:16;;;;;;;;;;;14.90;99.90;;;;;;1824466;78;20138;-71
2021/09/23 00:36:42;;;;;;;;;;;14.90;99.90;;;;;;1820425;78;20214;-71
2021/09/23 00:39:09;;;;;;;;;;;14.90;99.90;;;;;;1817269;78;20161;-71
2021/09/23 00:41:36;;;;;;;;;;;14.80;99.90;;;;;;1824766;78;20381;-71
2021/09/23 00:44:13;;;;;;;;;;;14.80;99.90;;;;;;1819365;77;20178;-71
2021/09/23 00:46:40;;;;;;;;;;;14.80;99.90;;;;;;1825160;78;20204;-72
2021/09/23 00:49:07;;;;;;;;;;;14.70;99.90;;;;;;1826652;78;20290;-72
2021/09/23 00:51:33;;;;;;;;;;;14.70;99.90;;;;;;1825450;78;20491;-71
2021/09/23 00:54:01;;;;;;;;;;;14.80;99.90;;;;;;1825376;78;20248;-71
2021/09/23 00:56:28;;;;;;;;;;;14.60;99.90;;;;;;1824384;78;20221;-71
2021/09/23 00:58:55;;;;;;;;;;;14.60;99.90;;;;;;1822252;78;20181;-70
2021/09/23 01:01:22;;;;;;;;;;;14.60;99.90;;;;;;1827152;78;20186;-71
2021/09/23 01:03:48;;;;;;;;;;;14.60;99.90;;;;;;1824492;78;20236;-70
2021/09/23 01:06:15;;;;;;;;;;;14.60;99.90;;;;;;1827069;78;20180;-71
2021/09/23 01:08:44;;;;;;;;;;;14.70;99.90;;;;;;1822136;78;20379;-71
2021/09/23 01:11:10;;;;;;;;;;;14.60;99.90;;;;;;1816994;78;20200;-71
2021/09/23 01:13:37;;;;;;;;;;;14.70;99.90;;;;;;1820064;78;20497;-71
2021/09/23 01:16:04;;;;;;;;;;;14.80;99.90;;;;;;1824304;78;20162;-71
2021/09/23 01:18:31;;;;;;;;;;;14.60;99.90;;;;;;1826064;78;20189;-71
2021/09/23 01:20:58;;;;;;;;;;;14.60;99.90;;;;;;1823667;78;20481;-71
2021/09/23 01:23:25;;;;;;;;;;;14.70;99.90;;;;;;1823329;78;20163;-70
2021/09/23 01:25:51;;;;;;;;;;;14.60;99.90;;;;;;1825652;78;20508;-70
2021/09/23 01:28:18;;;;;;;;;;;14.60;99.90;;;;;;1820291;78;20227;-70
2021/09/23 01:30:45;;;;;;;;;;;14.60;99.90;;;;;;1821929;77;20782;-70
2021/09/23 01:33:12;;;;;;;;;;;14.50;99.90;;;;;;1824290;78;20176;-71
2021/09/23 01:35:38;;;;;;;;;;;14.40;99.90;;;;;;1822734;77;20123;-71
2021/09/23 01:38:05;;;;;;;;;;;14.40;99.90;;;;;;1821358;78;20162;-70
2021/09/23 01:40:32;;;;;;;;;;;14.30;99.90;;;;;;1822678;78;20216;-70
2021/09/23 01:42:59;;;;;;;;;;;14.40;99.90;;;;;;1820705;78;20404;-71
2021/09/23 01:45:26;;;;;;;;;;;14.30;99.90;;;;;;1816618;78;20191;-70
2021/09/23 01:47:53;;;;;;;;;;;14.30;99.90;;;;;;1822047;78;20420;-70
2021/09/23 01:50:20;;;;;;;;;;;14.40;99.90;;;;;;1818514;78;20230;-70
2021/09/23 01:52:46;;;;;;;;;;;14.40;99.90;;;;;;1822423;78;20172;-70
2021/09/23 01:55:13;;;;;;;;;;;14.30;99.90;;;;;;1823418;77;20169;-70
2021/09/23 01:57:40;;;;;;;;;;;14.40;99.90;;;;;;1825665;78;20187;-70
2021/09/23 02:00:07;;;;;;;;;;;14.30;99.90;;;;;;1821974;78;20158;-70
2021/09/23 02:02:34;;;;;;;;;;;14.30;99.90;;;;;;1823474;78;20247;-70
2021/09/23 02:05:01;;;;;;;;;;;14.40;99.90;;;;;;1824491;78;20457;-70
2021/09/23 02:07:27;;;;;;;;;;;14.30;99.90;;;;;;1819904;78;20489;-70
2021/09/23 02:09:54;;;;;;;;;;;14.20;99.90;;;;;;1821301;78;20162;-71
2021/09/23 02:12:22;;;;;;;;;;;14.20;99.90;;;;;;1820011;78;20482;-71
2021/09/23 02:14:49;;;;;;;;;;;14.20;99.90;;;;;;1821558;78;20470;-72
2021/09/23 02:17:16;;;;;;;;;;;14.20;99.90;;;;;;1819862;78;20406;-71
2021/09/23 02:19:43;;;;;;;;;;;14.20;99.90;;;;;;1818224;78;20213;-71
2021/09/23 02:22:09;;;;;;;;;;;14.10;99.90;;;;;;1814343;78;20442;-71
2021/09/23 02:24:36;;;;;;;;;;;14.10;99.90;;;;;;1817027;78;20227;-71
2021/09/23 02:27:04;;;;;;;;;;;14.10;99.90;;;;;;1823907;78;20534;-71
2021/09/23 02:29:34;;;;;;;;;;;14.10;99.90;;;;;;1815562;78;20190;-71
2021/09/23 02:32:01;;;;;;;;;;;14.10;99.90;;;;;;1817124;78;20369;-71
2021/09/23 02:34:28;;;;;;;;;;;14.10;99.90;;;;;;1819757;77;20502;-71
2021/09/23 02:36:54;;;;;;;;;;;14.10;99.90;;;;;;1818723;78;20234;-70
2021/09/23 02:39:21;;;;;;;;;;;14.10;99.90;;;;;;1822813;78;20526;-71
2021/09/23 02:41:48;;;;;;;;;;;14.10;99.90;;;;;;1817947;78;20223;-71
2021/09/23 02:44:15;;;;;;;;;;;14.10;99.90;;;;;;1822211;77;20158;-71
2021/09/23 02:46:42;;;;;;;;;;;14.10;99.90;;;;;;1822419;78;20207;-71
2021/09/23 02:49:08;;;;;;;;;;;14.20;99.90;;;;;;1822949;78;20117;-71
2021/09/23 02:51:35;;;;;;;;;;;14.10;99.90;;;;;;1821170;78;20216;-71
2021/09/23 02:54:02;;;;;;;;;;;14.20;99.90;;;;;;1822536;78;20189;-71
2021/09/23 02:56:29;;;;;;;;;;;14.10;99.90;;;;;;1824320;78;20188;-71
2021/09/23 02:58:56;;;;;;;;;;;14.10;99.90;;;;;;1819364;78;20174;-71
2021/09/23 03:01:23;;;;;;;;;;;14.10;99.90;;;;;;1824535;78;20134;-71
2021/09/23 03:03:50;;;;;;;;;;;14.00;99.90;;;;;;1818528;78;20185;-71
2021/09/23 03:06:17;;;;;;;;;;;14.00;99.90;;;;;;1820937;78;20261;-71
2021/09/23 03:08:44;;;;;;;;;;;14.20;99.90;;;;;;1821076;78;20176;-71
2021/09/23 03:11:10;;;;;;;;;;;14.10;99.90;;;;;;1823016;78;20403;-71
2021/09/23 03:13:38;;;;;;;;;;;14.10;99.90;;;;;;1821046;78;20182;-71
2021/09/23 03:16:05;;;;;;;;;;;14.10;99.90;;;;;;1824126;78;20165;-71
2021/09/23 03:18:31;;;;;;;;;;;14.00;99.90;;;;;;1819936;78;20245;-71
2021/09/23 03:20:58;;;;;;;;;;;14.10;99.90;;;;;;1817662;78;20617;-72
2021/09/23 03:23:25;;;;;;;;;;;14.00;99.90;;;;;;1821856;78;20434;-71
2021/09/23 03:25:52;;;;;;;;;;;14.00;99.90;;;;;;1822681;78;20206;-72
2021/09/23 03:28:19;;;;;;;;;;;14.10;99.90;;;;;;1824733;78;20458;-71
2021/09/23 03:30:46;;;;;;;;;;;14.10;99.90;;;;;;1825860;78;20466;-71
2021/09/23 03:33:13;;;;;;;;;;;14.10;99.90;;;;;;1853032;73;20121;-71
2021/09/23 03:35:40;;;;;;;;;;;14.00;99.90;;;;;;1904048;74;20166;-70
2021/09/23 03:38:08;;;;;;;;;;;14.00;99.90;;;;;;1903175;74;20163;-71
2021/09/23 03:40:35;;;;;;;;;;;13.90;99.90;;;;;;1894927;74;20201;-71
2021/09/23 03:43:02;;;;;;;;;;;14.00;99.90;;;;;;1877951;73;20296;-70
2021/09/23 03:45:29;;;;;;;;;;;14.00;99.90;;;;;;1913730;75;20207;-70
2021/09/23 03:47:55;;;;;;;;;;;14.10;99.90;;;;;;1913518;73;20153;-70
2021/09/23 03:50:22;;;;;;;;;;;14.00;99.90;;;;;;1919950;73;20264;-70
2021/09/23 03:52:49;;;;;;;;;;;14.00;99.90;;;;;;1897127;73;20230;-72
2021/09/23 03:55:16;;;;;;;;;;;14.10;99.90;;;;;;1905752;73;20122;-72
2021/09/23 03:57:44;;;;;;;;;;;14.10;99.90;;;;;;1916309;75;20183;-72
2021/09/23 04:00:12;;;;;;;;;;;14.10;99.90;;;;;;1915244;73;20223;-72
2021/09/23 04:02:39;;;;;;;;;;;14.20;99.90;;;;;;1914841;73;20181;-71
2021/09/23 04:05:07;;;;;;;;;;;14.20;99.90;;;;;;1914839;73;20124;-71
2021/09/23 04:07:34;;;;;;;;;;;14.10;99.90;;;;;;1919521;74;20177;-71
2021/09/23 04:10:01;;;;;;;;;;;14.10;99.90;;;;;;1913515;73;20127;-70
2021/09/23 04:12:27;;;;;;;;;;;14.20;99.90;;;;;;1917424;73;20247;-70
2021/09/23 04:14:54;;;;;;;;;;;14.20;99.90;;;;;;1918264;75;20177;-70
2021/09/23 04:17:21;;;;;;;;;;;14.10;99.90;;;;;;1917164;74;20301;-68
2021/09/23 04:19:48;;;;;;;;;;;14.10;99.90;;;;;;1910317;73;20208;-70
2021/09/23 04:22:15;;;;;;;;;;;14.10;99.90;;;;;;1909833;73;20118;-70
2021/09/23 04:24:41;;;;;;;;;;;14.00;99.90;;;;;;1918771;75;20197;-70
2021/09/23 04:27:08;;;;;;;;;;;14.10;99.90;;;;;;1915235;75;20224;-69
2021/09/23 04:29:35;;;;;;;;;;;14.20;99.90;;;;;;1916176;73;20189;-70
2021/09/23 04:32:02;;;;;;;;;;;14.20;99.90;;;;;;1914167;75;20580;-70
2021/09/23 04:34:29;;;;;;;;;;;14.30;99.90;;;;;;1915664;73;20185;-70
2021/09/23 04:36:56;;;;;;;;;;;14.20;99.90;;;;;;1917610;73;20217;-71
2021/09/23 04:39:23;;;;;;;;;;;14.30;99.90;;;;;;1920143;75;20399;-69
2021/09/23 04:41:50;;;;;;;;;;;14.20;99.90;;;;;;1914219;74;20213;-70
2021/09/23 04:44:16;;;;;;;;;;;14.40;99.90;;;;;;1918045;73;20212;-70
2021/09/23 04:46:43;;;;;;;;;;;14.40;99.90;;;;;;1911959;75;20247;-70
2021/09/23 04:49:10;;;;;;;;;;;14.40;99.90;;;;;;1915618;73;20244;-71
2021/09/23 04:51:37;;;;;;;;;;;14.40;99.90;;;;;;1917501;75;20177;-70
2021/09/23 04:54:05;;;;;;;;;;;14.40;99.90;;;;;;1919719;73;20165;-70
2021/09/23 04:56:32;;;;;;;;;;;14.40;99.90;;;;;;1911868;75;20189;-69
2021/09/23 04:58:59;;;;;;;;;;;14.40;99.90;;;;;;1920124;73;20122;-71
2021/09/23 05:01:25;;;;;;;;;;;14.50;99.90;;;;;;1916724;74;20426;-72
2021/09/23 05:03:52;;;;;;;;;;;14.40;99.90;;;;;;1914966;73;20226;-71
2021/09/23 05:06:19;;;;;;;;;;;14.40;99.90;;;;;;1917011;74;20130;-71
2021/09/23 05:08:46;;;;;;;;;;;14.40;99.90;;;;;;1912869;73;20263;-70
2021/09/23 05:11:13;;;;;;;;;;;14.40;99.90;;;;;;1918682;75;20169;-70
2021/09/23 05:13:40;;;;;;;;;;;14.30;99.90;;;;;;1916815;75;20419;-70
2021/09/23 05:16:06;;;;;;;;;;;14.40;99.90;;;;;;1916829;75;20162;-70
2021/09/23 05:18:33;;;;;;;;;;;14.20;99.90;;;;;;1915443;73;20380;-71
2021/09/23 05:21:00;;;;;;;;;;;14.30;99.90;;;;;;1908342;74;20267;-70
2021/09/23 05:23:27;;;;;;;;;;;14.20;99.90;;;;;;1915117;74;20493;-70
2021/09/23 05:25:54;;;;;;;;;;;14.30;99.90;;;;;;1916103;73;20765;-71
2021/09/23 05:28:21;;;;;;;;;;;14.30;99.90;;;;;;1912521;73;20934;-70
2021/09/23 05:30:48;;;;;;;;;;;14.30;99.90;;;;;;1916268;73;20149;-70
2021/09/23 05:33:15;;;;;;;;;;;14.30;99.90;;;;;;1916753;73;20203;-70
2021/09/23 05:35:42;;;;;;;;;;;14.30;99.90;;;;;;1918054;73;20200;-70
2021/09/23 05:38:09;;;;;;;;;;;14.30;99.90;;;;;;1919337;75;20153;-69
2021/09/23 05:40:36;;;;;;;;;;;14.20;99.90;;;;;;1919447;73;20172;-70
2021/09/23 05:43:03;;;;;;;;;;;14.30;99.90;;;;;;1913348;75;20258;-70
2021/09/23 05:45:29;;;;;;;;;;;14.20;99.90;;;;;;1915232;75;20466;-70
2021/09/23 05:47:56;;;;;;;;;;;14.30;99.90;;;;;;1917285;73;20127;-70
2021/09/23 05:50:23;;;;;;;;;;;14.30;99.90;;;;;;1919513;75;20474;-69
2021/09/23 05:52:50;;;;;;;;;;;14.30;99.90;;;;;;1917037;75;20137;-72
2021/09/23 05:55:17;;;;;;;;;;;14.30;99.90;;;;;;1918708;75;20207;-80
2021/09/23 05:57:43;;;;;;;;;;;14.30;99.90;;;;;;1914165;73;20532;-71
2021/09/23 06:00:12;;;;;;;;;;;14.30;99.90;;;;;;1911239;75;20117;-71
2021/09/23 06:02:39;;;;;;;;;;;14.20;99.90;;;;;;1915176;73;20451;-71
2021/09/23 06:05:06;;;;;;;;;;;14.30;99.90;;;;;;1912304;73;20272;-70
2021/09/23 06:07:32;;;;;;;;;;;14.30;99.90;;;;;;1916088;75;20180;-71
2021/09/23 06:09:59;;;;;;;;;;;14.30;99.90;;;;;;1917098;75;20153;-72
2021/09/23 06:12:26;;;;;;;;;;;14.30;99.90;;;;;;1916212;73;20161;-71
2021/09/23 06:14:53;;;;;;;;;;;14.30;99.90;;;;;;1915104;73;20188;-78
2021/09/23 06:17:20;;;;;;;;;;;14.30;99.90;;;;;;1916893;75;20185;-71
2021/09/23 06:19:46;;;;;;;;;;;14.30;99.90;;;;;;1916996;75;20173;-69
2021/09/23 06:22:13;;;;;;;;;;;14.30;99.90;;;;;;1910350;73;20125;-71
2021/09/23 06:24:40;;;;;;;;;;;14.40;99.90;;;;;;1913298;75;20200;-70
2021/09/23 06:27:07;;;;;;;;;;;14.40;99.90;;;;;;1915996;75;20246;-70
2021/09/23 06:29:35;;;;;;;;;;;14.40;99.90;;;;;;1915992;75;20207;-70
2021/09/23 06:32:01;;;;;;;;;;;14.50;99.90;;;;;;1910345;73;20110;-70
2021/09/23 06:34:28;;;;;;;;;;;14.40;99.90;;;;;;1911933;73;20196;-70
2021/09/23 06:36:55;;;;;;;;;;;14.40;99.90;;;;;;1916427;73;20169;-70
2021/09/23 06:39:22;;;;;;;;;;;14.40;99.90;;;;;;1916829;73;20207;-70
2021/09/23 06:41:49;;;;;;;;;;;14.50;99.90;;;;;;1907918;74;20211;-69
2021/09/23 06:44:16;;;;;;;;;;;14.40;99.90;;;;;;1906547;73;20164;-71
2021/09/23 06:46:43;;;;;;;;;;;14.40;99.90;;;;;;1908058;75;20267;-71
2021/09/23 06:49:09;;;;;;;;;;;14.40;99.90;;;;;;1906340;73;20116;-71
2021/09/23 06:51:36;;;;;;;;;;;14.40;99.90;;;;;;1907364;73;20527;-70
2021/09/23 06:54:03;;;;;;;;;;;14.40;99.90;;;;;;1907805;73;20240;-70
2021/09/23 06:56:30;;;;;;;;;;;14.40;99.90;;;;;;1905373;73;20481;-70
2021/09/23 06:58:56;;;;;;;;;;;14.40;99.90;;;;;;1908900;73;20224;-70
2021/09/23 07:01:23;;;;;;;;;;;14.40;99.90;;;;;;1901978;73;20179;-71
2021/09/23 07:03:50;;;;;;;;;;;14.30;99.90;;;;;;1903339;73;20233;-69
2021/09/23 07:06:17;;;;;;;;;;;14.30;99.90;;;;;;1908245;73;20168;-71
2021/09/23 07:08:44;;;;;;;;;;;14.40;99.90;;;;;;1909344;73;20122;-70
2021/09/23 07:11:11;;;;;;;;;;;14.40;99.90;;;;;;1907777;73;20167;-70
2021/09/23 07:13:37;;;;;;;;;;;14.40;99.90;;;;;;1901857;73;20527;-70
2021/09/23 07:16:04;;;;;;;;;;;14.40;99.90;;;;;;1908259;73;20382;-71
2021/09/23 07:18:31;;;;;;;;;;;14.40;99.90;;;;;;1905627;73;20172;-71
2021/09/23 07:20:58;;;;;;;;;;;14.50;99.90;;;;;;1911429;73;20129;-71
2021/09/23 07:23:26;;;;;;;;;;;14.50;99.90;;;;;;1906655;73;20176;-71
2021/09/23 07:25:53;;;;;;;;;;;14.40;99.90;;;;;;1913842;75;20184;-71
2021/09/23 07:28:20;;;;;;;;;;;14.40;99.90;;;;;;1907787;73;20434;-70
2021/09/23 07:30:47;;;;;;;;;;;14.50;99.90;;;;;;1906821;73;20834;-70
2021/09/23 07:33:14;;;;;;;;;;;14.50;99.90;;;;;;1903616;73;20206;-70
2021/09/23 07:35:41;;;;;;;;;;;14.50;99.90;;;;;;1908649;73;21107;-70
2021/09/23 07:38:07;;;;;;;;;;;14.50;99.90;;;;;;1905272;73;20261;-70
2021/09/23 07:40:34;;;;;;;;;;;14.60;99.90;;;;;;1900812;73;20174;-70
2021/09/23 07:43:01;;;;;;;;;;;14.50;99.90;;;;;;1912125;73;20132;-70
2021/09/23 07:45:28;;;;;;;;;;;14.60;99.90;;;;;;1907518;73;20181;-70
2021/09/23 07:47:55;;;;;;;;;;;14.70;99.90;;;;;;1904476;73;20209;-69
2021/09/23 07:50:22;;;;;;;;;;;14.70;99.90;;;;;;1905528;73;20505;-70
2021/09/23 07:52:49;;;;;;;;;;;14.80;99.90;;;;;;1906147;73;20228;-70
2021/09/23 07:55:16;;;;;;;;;;;14.90;99.90;;;;;;1907874;73;20222;-70
2021/09/23 07:57:42;;;;;;;;;;;15.00;99.90;;;;;;1904476;73;20300;-70
2021/09/23 08:00:09;;;;;;;;;;;15.00;99.90;;;;;;1910702;73;20255;-70
2021/09/23 08:02:36;;;;;;;;;;;15.00;99.90;;;;;;1905095;73;20211;-69
2021/09/23 08:05:03;;;;;;;;;;;15.00;99.90;;;;;;1907082;73;20289;-69
2021/09/23 08:07:30;;;;;;;;;;;15.10;99.90;;;;;;1909132;73;20224;-70
2021/09/23 08:09:57;;;;;;;;;;;15.10;99.90;;;;;;1908815;73;20411;-70
2021/09/23 08:12:23;;;;;;;;;;;15.20;99.90;;;;;;1907126;73;20110;-69
2021/09/23 08:14:50;;;;;;;;;;;15.20;99.90;;;;;;1912135;73;20189;-70
2021/09/23 08:17:17;;;;;;;;;;;15.30;99.90;;;;;;1905799;73;20169;-70
2021/09/23 08:19:44;;;;;;;;;;;15.20;99.90;;;;;;1908441;73;20298;-71
2021/09/23 08:22:11;;;;;;;;;;;15.30;99.90;;;;;;1909792;73;20374;-71
2021/09/23 08:24:38;;;;;;;;;;;15.40;99.90;;;;;;1911558;73;20410;-71
2021/09/23 08:27:05;;;;;;;;;;;15.40;99.90;;;;;;1920061;74;20161;-71
2021/09/23 08:29:31;;;;;;;;;;;15.50;99.90;;;;;;1916577;73;20171;-71
2021/09/23 08:31:58;;;;;;;;;;;15.50;99.90;;;;;;1918042;73;20180;-70
2021/09/23 08:34:25;;;;;;;;;;;15.60;99.90;;;;;;1917967;73;20177;-69
2021/09/23 08:36:52;;;;;;;;;;;15.70;99.90;;;;;;1918205;73;20128;-71
2021/09/23 08:39:19;;;;;;;;;;;15.70;99.90;;;;;;1911525;73;20485;-71
2021/09/23 08:41:49;;;;;;;;;;;15.80;99.90;;;;;;1910178;73;20187;-71
2021/09/23 08:44:15;;;;;;;;;;;15.80;99.90;;;;;;1915779;73;20219;-71
2021/09/23 08:46:43;;;;;;;;;;;15.80;99.90;;;;;;1905986;73;20224;-71
2021/09/23 08:49:10;;;;;;;;;;;15.90;99.90;;;;;;1910670;73;20396;-70
2021/09/23 08:51:38;;;;;;;;;;;15.90;99.90;;;;;;1908251;73;20232;-71
2021/09/23 08:54:06;;;;;;;;;;;15.90;99.90;;;;;;1911058;73;20182;-71
2021/09/23 08:56:34;;;;;;;;;;;16.00;99.90;;;;;;1907701;73;20184;-72
2021/09/23 08:59:01;;;;;;;;;;;16.00;99.90;;;;;;1906181;73;20166;-71
2021/09/23 09:01:32;;;;;;;;;;;16.10;99.90;;;;;;1907517;73;20161;-70
2021/09/23 09:03:59;;;;;;;;;;;16.10;99.90;;;;;;1902184;73;20495;-71
2021/09/23 09:06:26;;;;;;;;;;;16.10;99.90;;;;;;1905387;73;20157;-68
2021/09/23 09:08:53;;;;;;;;;;;16.10;99.90;;;;;;1905657;73;20817;-69
2021/09/23 09:11:43;;;;;;;;;;;16.10;99.90;;;;;;1901197;73;20168;-69
2021/09/23 09:14:08;;;;;;;;;;;16.10;99.90;;;;;;1831673;76;20271;-70
2021/09/23 09:16:38;;;;;;;;;;;16.10;99.90;;;;;;1833598;76;20156;-70
2021/09/23 09:19:06;;;;;;;;;;;16.10;99.90;;;;;;1829719;76;20250;-69
2021/09/23 09:21:32;;;;;;;;;;;16.10;99.90;;;;;;1832961;76;20252;-69
2021/09/23 09:23:59;;;;;;;;;;;16.10;99.90;;;;;;1834198;76;20190;-70
2021/09/23 09:26:28;;;;;;;;;;;16.10;99.90;;;;;;1833983;76;20417;-71
2021/09/23 09:28:56;;;;;;;;;;;16.10;99.90;;;;;;1833665;76;20241;-69
2021/09/23 09:31:23;;;;;;;;;;;16.10;99.90;;;;;;1835946;76;20183;-71
2021/09/23 09:33:52;;;;;;;;;;;16.10;99.90;;;;;;1838227;71;20199;-71
2021/09/23 09:36:26;;;;;;;;;;;16.10;99.90;;;;;;1855510;76;20177;-70
2021/09/23 09:38:55;;;;;;;;;;;16.10;99.90;;;;;;1859235;76;20221;-71
2021/09/23 09:41:29;;;;;;;;;;;16.10;99.90;;;;;;1849697;76;20204;-73
2021/09/23 09:43:57;;;;;;;;;;;16.10;99.90;;;;;;1873178;75;20429;-70
2021/09/23 09:46:28;;;;;;;;;;;16.10;99.90;;;;;;1838912;77;20151;-70
2021/09/23 09:48:56;;;;;;;;;;;16.20;99.90;;;;;;1837147;76;20126;-70
2021/09/23 09:51:25;;;;;;;;;;;16.20;99.90;;;;;;1837599;76;20235;-70
2021/09/23 09:53:58;;;;;;;;;;;16.30;99.90;;;;;;1871477;75;20196;-71
2021/09/23 09:56:25;;;;;;;;;;;16.40;99.90;;;;;;1879418;75;20205;-72
2021/09/23 09:59:05;;;;;;;;;;;16.40;99.90;;;;;;1885587;75;20277;-70
2021/09/23 10:01:32;;;;;;;;;;;16.50;99.90;;;;;;1880915;75;20408;-71
2021/09/23 10:03:59;;;;;;;;;;;16.50;99.90;;;;;;1878947;75;20221;-71
2021/09/23 10:06:26;;;;;;;;;;;16.60;99.90;;;;;;1879823;75;20276;-71
2021/09/23 10:08:53;;;;;;;;;;;16.60;99.90;;;;;;1872508;75;20167;-70
2021/09/23 10:11:20;;;;;;;;;;;16.70;99.90;;;;;;1867798;75;20577;-71
2021/09/23 10:13:47;;;;;;;;;;;16.70;99.90;;;;;;1870655;75;20329;-71
2021/09/23 10:16:15;;;;;;;;;;;16.80;99.90;;;;;;1872945;75;20227;-71
2021/09/23 10:18:42;;;;;;;;;;;16.90;99.90;;;;;;1873229;75;20195;-70
2021/09/23 10:21:09;;;;;;;;;;;17.00;99.90;;;;;;1872738;75;20238;-70
2021/09/23 10:23:40;;;;;;;;;;;17.10;99.90;;;;;;1872930;75;20265;-70
2021/09/23 10:26:06;;;;;;;;;;;17.10;99.90;;;;;;1867101;76;20457;-70
2021/09/23 10:28:33;;;;;;;;;;;17.10;99.90;;;;;;1868856;75;20638;-70
2021/09/23 10:31:00;;;;;;;;;;;17.20;99.90;;;;;;1872116;75;20434;-70
2021/09/23 10:33:27;;;;;;;;;;;17.30;99.90;;;;;;1875007;75;20155;-70
2021/09/23 10:35:54;;;;;;;;;;;17.40;99.90;;;;;;1869657;75;20172;-70
2021/09/23 10:38:21;;;;;;;;;;;17.50;99.90;;;;;;1867808;75;20399;-70
2021/09/23 10:40:47;;;;;;;;;;;17.50;99.90;;;;;;1871048;75;20179;-73
2021/09/23 10:43:16;;;;;;;;;;;17.60;99.90;;;;;;1868907;75;20260;-70
2021/09/23 10:45:43;;;;;;;;;;;17.60;99.90;;;;;;1868930;75;20125;-71
2021/09/23 10:48:11;;;;;;;;;;;17.60;99.90;;;;;;1872085;75;20245;-71
2021/09/23 10:50:39;;;;;;;;;;;17.60;99.90;;;;;;1869983;75;20200;-71
2021/09/23 10:53:06;;;;;;;;;;;17.50;99.90;;;;;;1870340;75;20129;-72
2021/09/23 10:55:35;;;;;;;;;;;17.50;99.90;;;;;;1869569;75;20164;-72
2021/09/23 10:58:03;;;;;;;;;;;17.40;99.90;;;;;;1869615;75;20191;-72
2021/09/23 11:00:34;;;;;;;;;;;17.40;99.90;;;;;;1873389;75;20175;-72
2021/09/23 11:03:05;;;;;;;;;;;17.30;99.90;;;;;;1866356;75;20253;-73
2021/09/23 11:05:32;;;;;;;;;;;17.30;99.90;;;;;;1872082;75;20221;-73
2021/09/23 11:08:00;;;;;;;;;;;17.30;99.90;;;;;;1867977;75;20212;-73
2021/09/23 11:10:27;;;;;;;;;;;17.20;99.90;;;;;;1869830;75;20263;-73
2021/09/23 11:12:55;;;;;;;;;;;17.20;99.90;;;;;;1868606;75;20175;-71
2021/09/23 11:15:23;;;;;;;;;;;17.20;99.90;;;;;;1869923;75;20246;-70
2021/09/23 11:17:51;;;;;;;;;;;17.20;99.90;;;;;;1874358;75;20443;-70
2021/09/23 11:20:22;;;;;;;;;;;17.20;99.90;;;;;;1868800;75;20178;-70
2021/09/23 11:22:56;;;;;;;;;;;17.20;99.90;;;;;;1877309;75;20232;-72
2021/09/23 11:25:23;;;;;;;;;;;17.30;99.90;;;;;;1878152;75;20176;-72
2021/09/23 11:27:51;;;;;;;;;;;17.30;99.90;;;;;;1879169;75;20212;-72
2021/09/23 11:30:20;;;;;;;;;;;17.40;99.90;;;;;;1872927;75;20231;-72
2021/09/23 11:32:54;;;;;;;;;;;17.40;99.90;;;;;;1878790;75;20289;-73
2021/09/23 11:35:22;;;;;;;;;;;17.40;99.90;;;;;;1867781;75;20661;-73
2021/09/23 11:37:50;;;;;;;;;;;17.30;99.90;;;;;;1865544;75;20219;-71
2021/09/23 11:40:21;;;;;;;;;;;17.30;99.90;;;;;;1859057;75;20281;-72
2021/09/23 11:42:48;;;;;;;;;;;17.30;99.90;;;;;;1855161;75;20185;-72
2021/09/23 11:45:16;;;;;;;;;;;17.30;99.90;;;;;;1858664;75;20223;-71
2021/09/23 11:47:44;;;;;;;;;;;17.30;99.90;;;;;;1884318;74;20199;-73
2021/09/23 11:50:11;;;;;;;;;;;17.30;99.90;;;;;;1877896;74;20126;-73
2021/09/23 11:52:38;;;;;;;;;;;17.30;99.90;;;;;;1878806;74;20245;-70
2021/09/23 11:55:06;;;;;;;;;;;17.30;99.90;;;;;;1881868;74;20187;-69
2021/09/23 11:57:33;;;;;;;;;;;17.20;99.90;;;;;;1880777;74;20175;-69
2021/09/23 12:00:01;;;;;;;;;;;17.20;99.90;;;;;;1880484;74;20472;-69
2021/09/23 12:02:29;;;;;;;;;;;17.20;99.90;;;;;;1875777;74;20186;-69
2021/09/23 12:04:58;;;;;;;;;;;17.20;99.90;;;;;;1878298;74;20230;-69
2021/09/23 12:07:26;;;;;;;;;;;17.20;99.90;;;;;;1883459;74;20151;-69
2021/09/23 12:10:08;;;;;;;;;;;17.20;99.90;;;;;;1882095;74;20293;-69
2021/09/23 12:12:34;;;;;;;;;;;17.20;99.90;;;;;;1880381;74;20209;-70
2021/09/23 12:15:01;;;;;;;;;;;17.20;99.90;;;;;;1879339;74;20121;-70
2021/09/23 12:17:28;;;;;;;;;;;17.20;99.90;;;;;;1885227;74;20416;-70
2021/09/23 12:19:56;;;;;;;;;;;17.20;99.90;;;;;;1878071;74;20230;-70
2021/09/23 12:22:28;;;;;;;;;;;17.10;99.90;;;;;;1879814;74;20453;-70
2021/09/23 12:24:55;;;;;;;;;;;17.10;99.90;;;;;;1880994;74;20195;-69
2021/09/23 12:27:22;;;;;;;;;;;17.10;99.90;;;;;;1878658;74;20210;-70
2021/09/23 12:29:52;;;;;;;;;;;17.20;99.90;;;;;;1887946;74;20233;-70
2021/09/23 12:32:17;;;;;;;;;;;17.10;99.90;;;;;;1879857;74;20430;-70
2021/09/23 12:34:47;;;;;;;;;;;17.10;99.90;;;;;;1882933;74;20504;-70
2021/09/23 12:37:14;;;;;;;;;;;17.10;99.90;;;;;;1882641;74;20205;-68
2021/09/23 12:39:43;;;;;;;;;;;17.10;99.90;;;;;;1886031;74;20151;-68
2021/09/23 12:42:14;;;;;;;;;;;17.10;99.90;;;;;;1882493;74;20241;-68
2021/09/23 12:44:54;;;;;;;;;;;17.10;99.90;;;;;;1882519;74;20256;-69
2021/09/23 12:47:21;;;;;;;;;;;17.10;99.90;;;;;;1879644;74;20299;-69
2021/09/23 12:49:52;;;;;;;;;;;17.10;99.90;;;;;;1879875;74;20127;-69
2021/09/23 12:52:21;;;;;;;;;;;17.10;99.90;;;;;;1878731;74;20104;-70
2021/09/23 12:54:49;;;;;;;;;;;17.20;99.90;;;;;;1877225;74;20231;-71
2021/09/23 12:57:20;;;;;;;;;;;17.20;99.90;;;;;;1887405;74;20525;-69
2021/09/23 12:59:47;;;;;;;;;;;17.20;99.90;;;;;;1887548;74;20237;-69
2021/09/23 13:02:15;;;;;;;;;;;17.20;99.90;;;;;;1884483;75;20520;-69
2021/09/23 13:04:43;;;;;;;;;;;17.30;99.90;;;;;;1887877;74;20128;-69
2021/09/23 13:07:17;;;;;;;;;;;17.30;99.90;;;;;;1885743;74;20180;-69
2021/09/23 13:10:00;;;;;;;;;;;17.30;99.90;;;;;;1883436;74;20447;-70
2021/09/23 13:12:34;;;;;;;;;;;17.30;99.90;;;;;;1883975;74;20186;-70
2021/09/23 13:15:01;;;;;;;;;;;17.30;99.90;;;;;;1887210;74;20264;-70
2021/09/23 13:17:28;;;;;;;;;;;17.20;99.90;;;;;;1885680;74;20183;-70
2021/09/23 13:19:54;;;;;;;;;;;17.20;99.90;;;;;;1882997;74;20124;-69
2021/09/23 13:22:21;;;;;;;;;;;17.20;99.90;;;;;;1878673;75;20179;-69
2021/09/23 13:24:48;;;;;;;;;;;17.20;99.90;;;;;;1882123;75;20281;-70
2021/09/23 13:27:15;;;;;;;;;;;17.20;99.90;;;;;;1886623;75;20312;-70
2021/09/23 13:29:41;;;;;;;;;;;17.20;99.90;;;;;;1887966;74;20167;-70
2021/09/23 13:32:10;;;;;;;;;;;17.20;99.90;;;;;;1881167;75;20117;-70
2021/09/23 13:34:37;;;;;;;;;;;17.20;99.90;;;;;;1886163;75;20173;-70
2021/09/23 13:37:05;;;;;;;;;;;17.20;99.90;;;;;;1887134;75;20178;-70
2021/09/23 13:39:32;;;;;;;;;;;17.30;99.90;;;;;;1885717;74;20483;-70
2021/09/23 13:41:58;;;;;;;;;;;17.30;99.90;;;;;;1884750;76;20163;-70
2021/09/23 13:44:25;;;;;;;;;;;17.30;99.90;;;;;;1887031;75;20411;-70
2021/09/23 13:46:52;;;;;;;;;;;17.30;99.90;;;;;;1887793;76;20207;-70
2021/09/23 13:49:19;;;;;;;;;;;17.30;99.90;;;;;;1887298;74;20112;-70
2021/09/23 13:51:46;;;;;;;;;;;17.30;99.90;;;;;;1887663;74;20131;-70
2021/09/23 13:54:13;;;;;;;;;;;17.40;99.90;;;;;;1883742;76;20202;-69
2021/09/23 13:56:40;;;;;;;;;;;17.30;99.90;;;;;;1885092;74;20122;-70
2021/09/23 13:59:06;;;;;;;;;;;17.30;99.90;;;;;;1884055;74;20495;-69
2021/09/23 14:01:35;;;;;;;;;;;17.30;99.90;;;;;;1885598;74;20203;-70
2021/09/23 14:04:01;;;;;;;;;;;17.30;99.90;;;;;;1887234;74;20245;-70
2021/09/23 14:06:28;;;;;;;;;;;17.30;99.90;;;;;;1886877;74;20303;-70
2021/09/23 14:08:55;;;;;;;;;;;17.40;99.90;;;;;;1886605;74;20174;-69
2021/09/23 14:11:23;;;;;;;;;;;17.40;99.90;;;;;;1887362;74;20127;-70
2021/09/23 14:13:50;;;;;;;;;;;17.40;99.90;;;;;;1883743;74;20252;-70
2021/09/23 14:16:17;;;;;;;;;;;17.40;99.90;;;;;;1885460;74;20186;-70